Time;durP1;ratioP1;P1;durP2;ratioP2;P2;SDS_P1;SDS_P2;PMS_P1;PMS_P2;Temp;Humidity;BMP_temperature;BMP_pressure;BME280_temperature;BME280_humidity;BME280_pressure;Samples;Min_cycle;Max_cycle;Signal;HPM_P1;HPM_P2
2023/12/29 00:00:41;;;;;;;7.40;5.70;;;;;;;5.87;100.00;99989.15;180100;1257;44611;-66
2023/12/29 00:05:05;;;;;;;7.10;5.50;;;;;;;5.95;100.00;99987.73;179909;1259;45034;-66
2023/12/29 00:09:40;;;;;;;7.20;4.70;;;;;;;6.01;100.00;99978.42;179987;1257;43772;-66
2023/12/29 00:13:45;;;;;;;7.00;4.50;;;;;;;6.05;100.00;99980.78;180161;1257;43500;-66
2023/12/29 00:17:48;;;;;;;4.10;3.30;;;;;;;6.06;100.00;99978.06;179944;1257;58409;-66
2023/12/29 00:21:52;;;;;;;5.60;4.30;;;;;;;6.06;100.00;99974.16;179969;1257;43783;-66
2023/12/29 00:25:57;;;;;;;5.30;3.80;;;;;;;6.05;100.00;99963.37;180091;1257;43825;-66
2023/12/29 00:30:00;;;;;;;8.10;4.10;;;;;;;6.01;100.00;99967.88;180021;1257;46115;-65
2023/12/29 00:34:05;;;;;;;4.90;3.40;;;;;;;5.99;100.00;99965.48;180046;1257;45369;-66
2023/12/29 00:38:09;;;;;;;6.30;4.40;;;;;;;5.96;100.00;99956.13;180130;1260;58426;-66
2023/12/29 00:42:12;;;;;;;8.70;4.80;;;;;;;5.98;100.00;99949.55;180055;1257;45855;-66
2023/12/29 00:46:16;;;;;;;8.40;5.50;;;;;;;5.99;100.00;99950.90;179993;1257;46097;-65
2023/12/29 00:50:19;;;;;;;8.10;5.10;;;;;;;5.96;100.00;99951.77;179995;1257;44980;-65
2023/12/29 00:54:22;;;;;;;9.80;4.60;;;;;;;5.88;100.00;99948.08;180138;1257;43791;-66
2023/12/29 00:58:30;;;;;;;6.10;4.00;;;;;;;5.88;100.00;99951.43;180038;1257;58719;-66
2023/12/29 01:02:34;;;;;;;9.30;5.00;;;;;;;5.88;100.00;99955.83;180108;1257;45313;-66
2023/12/29 01:06:38;;;;;;;7.30;5.80;;;;;;;5.84;100.00;99951.88;180003;1257;46159;-66
2023/12/29 01:10:41;;;;;;;8.20;5.70;;;;;;;5.82;100.00;99953.59;179896;1257;44845;-66
2023/12/29 01:14:45;;;;;;;8.20;5.90;;;;;;;5.79;100.00;99949.76;180114;1257;43593;-66
2023/12/29 01:18:48;;;;;;;8.30;6.20;;;;;;;5.80;100.00;99946.52;179999;1257;58986;-66
2023/12/29 01:23:21;;;;;;;8.90;6.70;;;;;;;5.80;100.00;99948.09;179892;1257;46086;-66
2023/12/29 01:27:24;;;;;;;6.70;5.00;;;;;;;5.82;100.00;99958.85;179946;1257;45934;-66
2023/12/29 01:31:33;;;;;;;8.30;7.00;;;;;;;5.83;100.00;99961.95;179944;1257;46024;-66
2023/12/29 01:35:37;;;;;;;8.10;5.50;;;;;;;5.85;100.00;99969.08;180092;1257;44926;-66
2023/12/29 01:39:40;;;;;;;10.60;5.90;;;;;;;5.85;100.00;99963.94;179990;1257;58685;-66
2023/12/29 01:43:56;;;;;;;7.60;4.20;;;;;;;5.83;100.00;99964.80;179987;1257;44761;-66
2023/12/29 01:47:59;;;;;;;8.10;5.60;;;;;;;5.81;100.00;99949.58;179941;1257;45012;-66
2023/12/29 01:52:04;;;;;;;5.40;3.60;;;;;;;5.78;100.00;99938.91;180044;1258;46238;-66
2023/12/29 01:56:10;;;;;;;5.40;3.60;;;;;;;5.76;100.00;99930.58;180023;1263;45008;-66
2023/12/29 02:00:16;;;;;;;10.60;4.40;;;;;;;5.78;100.00;99925.36;180079;1260;58539;-66
2023/12/29 02:04:20;;;;;;;8.20;4.50;;;;;;;5.82;100.00;99919.27;179860;1262;46159;-65
2023/12/29 02:08:24;;;;;;;6.80;4.50;;;;;;;5.84;100.00;99916.14;179998;1257;45967;-66
2023/12/29 02:12:29;;;;;;;5.60;4.40;;;;;;;5.78;100.00;99909.33;179976;1257;44501;-66
2023/12/29 02:17:05;;;;;;;11.80;6.40;;;;;;;5.69;100.00;99908.90;179947;1257;44566;-66
2023/12/29 02:21:26;;;;;;;11.30;7.60;;;;;;;5.54;100.00;99900.19;180108;1257;59373;-66
2023/12/29 02:25:30;;;;;;;10.80;5.70;;;;;;;5.29;100.00;99895.20;180009;1262;45911;-66
2023/12/29 02:29:34;;;;;;;7.40;4.90;;;;;;;5.00;100.00;99890.36;180141;1257;46143;-67
2023/12/29 02:33:41;;;;;;;9.40;6.70;;;;;;;4.79;100.00;99892.56;179997;1257;45594;-66
2023/12/29 02:37:46;;;;;;;6.70;4.40;;;;;;;4.66;100.00;99890.60;179989;1257;43618;-66
2023/12/29 02:41:49;;;;;;;5.70;4.20;;;;;;;4.53;100.00;99883.33;180064;1260;57455;-66
2023/12/29 02:45:57;;;;;;;9.10;4.60;;;;;;;4.43;100.00;99868.65;179994;1257;45281;-64
2023/12/29 02:50:01;;;;;;;7.40;4.60;;;;;;;4.40;100.00;99858.85;179911;1259;45921;-66
2023/12/29 02:54:07;;;;;;;8.90;4.80;;;;;;;4.41;100.00;99854.53;180038;1257;44986;-66
2023/12/29 02:58:14;;;;;;;5.10;4.10;;;;;;;4.42;100.00;99855.00;180151;1257;44145;-66
2023/12/29 03:02:19;;;;;;;6.30;4.30;;;;;;;4.43;100.00;99855.16;180068;1260;58438;-66
2023/12/29 03:06:24;;;;;;;4.80;4.30;;;;;;;4.45;100.00;99844.11;179902;1259;46111;-66
2023/12/29 03:10:29;;;;;;;5.60;4.50;;;;;;;4.57;100.00;99842.17;180092;1257;44989;-66
2023/12/29 03:14:33;;;;;;;3.40;3.00;;;;;;;4.72;100.00;99841.36;179934;1259;45933;-66
2023/12/29 03:18:39;;;;;;;3.60;2.80;;;;;;;4.86;100.00;99831.14;180123;1257;44952;-66
2023/12/29 03:22:44;;;;;;;3.90;3.40;;;;;;;4.99;100.00;99832.83;179835;1262;137867;-66
2023/12/29 03:26:47;;;;;;;4.00;3.30;;;;;;;5.06;100.00;99829.19;179964;1261;43818;-66
2023/12/29 03:30:50;;;;;;;3.20;2.70;;;;;;;5.12;100.00;99829.67;180064;1261;43594;-66
2023/12/29 03:34:54;;;;;;;5.60;4.90;;;;;;;5.01;100.00;99825.63;180177;1260;43754;-66
2023/12/29 03:38:57;;;;;;;4.90;3.60;;;;;;;4.82;100.00;99820.50;180130;1257;43743;-66
2023/12/29 03:43:01;;;;;;;5.00;4.40;;;;;;;4.67;100.00;99817.77;180023;1258;59368;-66
2023/12/29 03:47:05;;;;;;;7.30;4.40;;;;;;;4.53;100.00;99814.84;179976;1258;45918;-68
2023/12/29 03:51:08;;;;;;;8.30;6.00;;;;;;;4.42;100.00;99810.45;180087;1257;46130;-67
2023/12/29 03:55:12;;;;;;;8.70;7.80;;;;;;;4.28;100.00;99804.80;180081;1257;46249;-67
2023/12/29 03:59:15;;;;;;;7.60;6.50;;;;;;;4.18;100.00;99804.92;180025;1257;43726;-66
2023/12/29 04:03:19;;;;;;;8.80;7.10;;;;;;;4.10;100.00;99797.49;180037;1260;58556;-66
2023/12/29 04:07:22;;;;;;;9.70;5.90;;;;;;;4.05;100.00;99793.64;180120;1262;44253;-66
2023/12/29 04:11:36;;;;;;;9.10;6.50;;;;;;;3.95;100.00;99781.75;180043;1262;45344;-66
2023/12/29 04:15:39;;;;;;;9.00;6.80;;;;;;;3.94;100.00;99778.68;180231;1260;45374;-66
2023/12/29 04:19:43;;;;;;;6.90;5.10;;;;;;;3.93;100.00;99778.92;180256;1262;46404;-67
2023/12/29 04:23:47;;;;;;;8.10;5.10;;;;;;;3.91;100.00;99774.27;180242;1260;58476;-66
2023/12/29 04:27:51;;;;;;;7.00;4.90;;;;;;;3.99;100.00;99774.48;180064;1260;45061;-66
2023/12/29 04:31:56;;;;;;;4.20;3.40;;;;;;;4.14;100.00;99775.31;180084;1257;45967;-65
2023/12/29 04:35:59;;;;;;;2.90;2.00;;;;;;;4.34;100.00;99774.77;179923;1262;45971;-66
2023/12/29 04:40:03;;;;;;;2.40;1.80;;;;;;;4.61;100.00;99773.41;180154;1257;43634;-67
2023/12/29 04:44:09;;;;;;;3.40;2.70;;;;;;;4.90;100.00;99769.05;180057;1257;58427;-66
2023/12/29 04:48:12;;;;;;;2.50;2.20;;;;;;;5.14;100.00;99759.06;179920;1260;43688;-66
2023/12/29 04:52:16;;;;;;;3.00;2.10;;;;;;;5.34;100.00;99762.81;180127;1259;44635;-66
2023/12/29 04:56:19;;;;;;;4.10;2.50;;;;;;;5.54;100.00;99761.09;179924;1260;45792;-66
2023/12/29 05:00:23;;;;;;;2.80;2.60;;;;;;;5.72;100.00;99764.05;179822;1261;43904;-66
2023/12/29 05:04:26;;;;;;;4.60;2.60;;;;;;;5.87;100.00;99760.02;179879;1260;59182;-66
2023/12/29 05:08:29;;;;;;;2.20;1.80;;;;;;;6.01;100.00;99757.29;179959;1257;45061;-66
2023/12/29 05:12:32;;;;;;;2.90;2.40;;;;;;;6.14;100.00;99753.95;179988;1261;43980;-66
2023/12/29 05:16:36;;;;;;;3.50;1.80;;;;;;;6.24;100.00;99750.39;179845;1259;44774;-65
2023/12/29 05:20:39;;;;;;;1.60;1.50;;;;;;;6.34;100.00;99753.20;179953;1260;46009;-66
2023/12/29 05:29:42;;;;;;;2.80;1.90;;;;;;;6.52;100.00;99749.09;180137;1257;46031;-66
2023/12/29 05:33:46;;;;;;;2.00;1.70;;;;;;;6.55;100.00;99746.55;180091;1256;46028;-66
2023/12/29 05:37:50;;;;;;;5.70;2.20;;;;;;;6.56;100.00;99741.23;179947;1257;44872;-65
2023/12/29 05:41:53;;;;;;;2.00;1.70;;;;;;;6.65;100.00;99743.75;180012;1258;43653;-65
2023/12/29 05:45:58;;;;;;;5.90;5.40;;;;;;;6.70;100.00;99743.16;180126;1257;57658;-65
2023/12/29 05:50:07;;;;;;;4.20;3.70;;;;;;;6.75;100.00;99730.88;180010;1257;46156;-65
2023/12/29 05:54:10;;;;;;;5.80;3.60;;;;;;;6.81;100.00;99728.66;179997;1262;45932;-66
2023/12/29 05:58:16;;;;;;;5.20;4.00;;;;;;;6.90;100.00;99732.04;180060;1257;46133;-65
2023/12/29 06:02:19;;;;;;;4.20;2.20;;;;;;;6.98;100.00;99733.17;180002;1257;45966;-64
2023/12/29 06:06:27;;;;;;;4.20;2.20;;;;;;;7.06;100.00;99729.47;179931;1257;58623;-65
2023/12/29 06:10:31;;;;;;;5.20;3.50;;;;;;;7.10;100.00;99722.92;180075;1257;43789;-65
2023/12/29 06:14:37;;;;;;;4.00;2.00;;;;;;;7.21;100.00;99726.02;180174;1257;46064;-64
2023/12/29 06:24:21;;;;;;;6.00;4.10;;;;;;;7.37;100.00;99717.52;180001;1258;45956;-66
2023/12/29 06:28:24;;;;;;;5.50;3.60;;;;;;;7.41;99.99;99720.42;180032;1257;59142;-63
2023/12/29 06:32:28;;;;;;;5.30;3.90;;;;;;;7.40;99.99;99716.05;180008;1257;45996;-65
2023/12/29 06:36:31;;;;;;;3.00;2.50;;;;;;;7.41;99.90;99720.27;179959;1257;46019;-66
2023/12/29 06:40:34;;;;;;;3.20;2.00;;;;;;;7.41;99.94;99722.52;180054;1257;43849;-65
2023/12/29 06:44:38;;;;;;;2.10;1.40;;;;;;;7.42;99.84;99720.71;179929;1257;46123;-65
2023/12/29 06:48:43;;;;;;;4.00;2.70;;;;;;;7.43;99.69;99728.39;180125;1257;58737;-65
2023/12/29 06:52:47;;;;;;;2.90;2.60;;;;;;;7.46;99.51;99729.59;180041;1260;43756;-66
2023/12/29 06:56:50;;;;;;;2.50;2.00;;;;;;;7.46;99.19;99731.11;180198;1258;44820;-66
2023/12/29 07:00:53;;;;;;;4.00;2.50;;;;;;;7.42;99.47;99736.88;180012;1257;46082;-66
2023/12/29 07:04:58;;;;;;;6.30;2.20;;;;;;;7.41;99.59;99733.48;179976;1258;44706;-65
2023/12/29 07:09:02;;;;;;;2.80;1.80;;;;;;;7.38;99.53;99725.05;180080;1257;59020;-65
2023/12/29 07:13:06;;;;;;;4.20;2.40;;;;;;;7.33;99.81;99721.08;179945;1260;46130;-66
2023/12/29 07:17:10;;;;;;;5.50;3.70;;;;;;;7.33;99.95;99720.36;180064;1257;46004;-65
2023/12/29 07:21:16;;;;;;;5.00;4.10;;;;;;;7.30;99.84;99723.19;180071;1257;44461;-66
2023/12/29 07:25:22;;;;;;;2.70;2.50;;;;;;;7.22;99.98;99717.95;180035;1257;44003;-65
2023/12/29 07:29:27;;;;;;;2.20;1.40;;;;;;;7.18;99.93;99713.92;179886;1257;58190;-66
2023/12/29 07:33:34;;;;;;;3.00;2.80;;;;;;;7.14;99.80;99708.57;180013;1257;43747;-66
2023/12/29 07:38:06;;;;;;;4.80;3.60;;;;;;;7.07;99.81;99712.09;180004;1257;43559;-66
2023/12/29 07:42:12;;;;;;;3.70;3.20;;;;;;;6.98;100.00;99717.63;180036;1257;44391;-66
2023/12/29 07:46:27;;;;;;;3.30;2.30;;;;;;;6.83;100.00;99715.09;180165;1259;44915;-65
2023/12/29 07:50:30;;;;;;;3.70;2.80;;;;;;;6.83;100.00;99712.30;180113;1258;58439;-66
2023/12/29 07:54:36;;;;;;;5.10;3.20;;;;;;;6.88;100.00;99704.17;179880;1257;45963;-66
2023/12/29 07:58:39;;;;;;;3.00;2.20;;;;;;;6.90;100.00;99706.84;179964;1258;44824;-65
2023/12/29 08:02:47;;;;;;;3.50;2.30;;;;;;;6.96;100.00;99718.34;180116;1257;46002;-66
2023/12/29 08:06:50;;;;;;;4.90;3.10;;;;;;;7.08;100.00;99720.43;179990;1257;46015;-66
2023/12/29 08:10:55;;;;;;;4.70;2.50;;;;;;;7.21;100.00;99724.57;179878;1257;58885;-65
2023/12/29 08:14:59;;;;;;;3.30;2.50;;;;;;;7.36;100.00;99718.53;180134;1257;46090;-66
2023/12/29 08:19:03;;;;;;;3.70;3.10;;;;;;;7.48;100.00;99717.23;179942;1257;46005;-65
2023/12/29 08:23:06;;;;;;;4.60;2.50;;;;;;;7.57;100.00;99708.04;180023;1257;44482;-66
2023/12/29 08:27:13;;;;;;;4.40;4.10;;;;;;;7.63;100.00;99703.52;180009;1257;45935;-65
2023/12/29 08:31:22;;;;;;;2.60;2.40;;;;;;;7.71;100.00;99701.52;180024;1257;58543;-65
2023/12/29 08:35:28;;;;;;;3.80;1.60;;;;;;;7.84;100.00;99709.11;180264;1257;44154;-66
2023/12/29 08:39:31;;;;;;;5.20;2.80;;;;;;;8.00;99.99;99704.30;180041;1257;45336;-65
2023/12/29 08:43:36;;;;;;;4.10;3.30;;;;;;;8.18;99.96;99705.77;180019;1257;44772;-66
2023/12/29 08:47:40;;;;;;;5.10;2.60;;;;;;;8.40;99.39;99706.57;180139;1257;45963;-65
2023/12/29 08:51:47;;;;;;;5.60;2.50;;;;;;;8.63;98.41;99708.87;180067;1257;57908;-65
2023/12/29 08:55:51;;;;;;;4.50;3.20;;;;;;;8.86;97.66;99708.55;179797;1257;46284;-66
2023/12/29 09:00:03;;;;;;;3.00;2.20;;;;;;;9.09;98.74;99706.56;180152;1257;43544;-65
2023/12/29 09:04:06;;;;;;;3.10;2.20;;;;;;;9.27;98.22;99708.65;180019;1257;45982;-65
2023/12/29 09:08:10;;;;;;;1.80;1.20;;;;;;;9.48;97.62;99715.55;180021;1257;43821;-65
2023/12/29 09:12:14;;;;;;;3.40;1.70;;;;;;;9.67;96.78;99719.40;180024;1257;59152;-65
2023/12/29 09:16:18;;;;;;;4.90;1.90;;;;;;;9.83;95.13;99722.27;180128;1257;45913;-65
2023/12/29 09:20:27;;;;;;;3.60;1.20;;;;;;;9.99;94.65;99727.73;179925;1258;45858;-65
2023/12/29 09:24:31;;;;;;;2.30;1.30;;;;;;;10.15;93.15;99727.79;180063;1257;44667;-64
2023/12/29 09:28:34;;;;;;;1.40;1.30;;;;;;;10.33;92.50;99726.66;179974;1257;45327;-64
2023/12/29 09:32:37;;;;;;;1.30;1.10;;;;;;;10.51;91.76;99726.39;180029;1257;59082;-65
2023/12/29 09:36:41;;;;;;;1.90;1.40;;;;;;;10.65;91.21;99732.23;180066;1257;45964;-64
2023/12/29 09:40:45;;;;;;;2.10;1.80;;;;;;;10.80;90.52;99728.37;180006;1257;43675;-65
2023/12/29 09:44:51;;;;;;;2.60;1.80;;;;;;;11.01;90.06;99731.58;179998;1257;43945;-64
2023/12/29 09:49:00;;;;;;;2.50;1.60;;;;;;;11.18;89.20;99737.98;180023;1258;43782;-65
2023/12/29 09:53:06;;;;;;;1.90;1.10;;;;;;;11.35;89.20;99733.67;179967;1257;58517;-65
2023/12/29 09:57:10;;;;;;;2.40;1.90;;;;;;;11.45;87.56;99729.09;180036;1257;46134;-65
2023/12/29 10:01:19;;;;;;;2.20;1.20;;;;;;;11.53;85.42;99723.61;179752;1259;45928;-65
2023/12/29 10:05:23;;;;;;;5.10;2.70;;;;;;;11.58;85.75;99717.92;179879;1259;46023;-65
2023/12/29 10:09:33;;;;;;;6.90;3.20;;;;;;;11.68;85.19;99726.41;180046;1257;45987;-64
2023/12/29 10:13:41;;;;;;;3.50;1.80;;;;;;;11.69;84.47;99730.05;180102;1257;58800;-65
2023/12/29 10:17:50;;;;;;;4.60;1.50;;;;;;;11.77;84.14;99733.35;179892;1259;46121;-64
2023/12/29 10:22:18;;;;;;;0.80;0.60;;;;;;;11.79;83.15;99731.80;180051;1257;43865;-65
2023/12/29 10:26:23;;;;;;;0.90;0.60;;;;;;;11.82;82.24;99724.70;180052;1257;45951;-64
2023/12/29 10:30:27;;;;;;;0.80;0.60;;;;;;;11.82;81.91;99723.35;180206;1257;45970;-64
2023/12/29 10:34:37;;;;;;;1.20;0.80;;;;;;;11.75;81.77;99721.49;179943;1257;58412;-64
2023/12/29 10:38:41;;;;;;;1.90;1.50;;;;;;;11.66;81.44;99720.94;179976;1257;45977;-64
2023/12/29 10:42:57;;;;;;;0.90;0.50;;;;;;;11.65;82.33;99717.28;180054;1257;45008;-64
2023/12/29 10:47:11;;;;;;;3.20;1.20;;;;;;;11.66;81.85;99717.59;179869;1258;46047;-65
2023/12/29 10:51:15;;;;;;;3.40;1.40;;;;;;;11.73;81.48;99703.17;180021;1258;43692;-65
2023/12/29 10:55:25;;;;;;;1.70;0.80;;;;;;;11.80;81.74;99704.65;180066;1257;59748;-65
2023/12/29 10:59:28;;;;;;;1.00;0.60;;;;;;;11.88;81.49;99700.73;180122;1257;44883;-65
2023/12/29 11:03:36;;;;;;;2.10;0.90;;;;;;;11.91;81.62;99696.04;180059;1259;45345;-65
2023/12/29 11:07:41;;;;;;;3.20;1.10;;;;;;;11.94;81.49;99696.75;179933;1257;46028;-65
2023/12/29 11:11:46;;;;;;;0.90;0.50;;;;;;;11.93;80.82;99695.33;180022;1257;43870;-65
2023/12/29 11:15:52;;;;;;;1.20;0.80;;;;;;;11.90;79.59;99686.67;179996;1259;57294;-66
2023/12/29 11:19:58;;;;;;;3.90;1.40;;;;;;;11.94;79.90;99685.97;180141;1257;44600;-65
2023/12/29 11:24:59;;;;;;;1.20;0.70;;;;;;;11.93;79.94;99687.81;180051;1259;44121;-65
2023/12/29 11:29:04;;;;;;;2.40;1.00;;;;;;;11.99;79.76;99682.98;180012;1257;43685;-66
2023/12/29 11:33:23;;;;;;;2.30;1.10;;;;;;;12.02;79.53;99685.54;180113;1257;45945;-65
2023/12/29 11:37:50;;;;;;;1.20;0.70;;;;;;;12.03;78.74;99686.38;180157;1257;58226;-66
2023/12/29 11:42:15;;;;;;;1.70;1.10;;;;;;;11.99;78.82;99693.95;180063;1257;44710;-65
2023/12/29 11:46:45;;;;;;;1.10;0.60;;;;;;;11.97;79.58;99693.31;180107;1257;45880;-65
2023/12/29 11:50:49;;;;;;;1.40;0.70;;;;;;;11.89;79.00;99689.46;180015;1257;43570;-65
2023/12/29 11:55:19;;;;;;;1.50;0.90;;;;;;;11.91;80.72;99699.23;179967;1257;46096;-66
2023/12/29 11:59:26;;;;;;;1.50;0.90;;;;;;;11.94;80.15;99692.90;180118;1257;57910;-66
2023/12/29 12:03:32;;;;;;;1.10;0.80;;;;;;;11.96;80.34;99697.46;180380;1257;45194;-65
2023/12/29 12:07:35;;;;;;;1.20;1.00;;;;;;;11.98;81.19;99687.63;180228;1257;46054;-65
2023/12/29 12:11:39;;;;;;;1.40;0.80;;;;;;;12.02;79.89;99687.47;180137;1257;43566;-65
2023/12/29 12:15:43;;;;;;;1.40;0.80;;;;;;;12.07;80.10;99685.23;180220;1257;43659;-65
2023/12/29 12:19:47;;;;;;;1.20;0.70;;;;;;;12.08;79.28;99682.90;180261;1257;58385;-65
2023/12/29 12:23:52;;;;;;;2.90;1.20;;;;;;;12.13;79.52;99689.81;180080;1258;44532;-65
2023/12/29 12:28:06;;;;;;;2.50;0.70;;;;;;;12.15;78.42;99684.47;180047;1257;44801;-64
2023/12/29 12:32:11;;;;;;;3.30;0.50;;;;;;;12.16;78.56;99691.00;180154;1257;43713;-64
2023/12/29 12:36:15;;;;;;;2.50;0.90;;;;;;;12.12;78.07;99688.86;180165;1257;45116;-65
2023/12/29 12:40:50;;;;;;;1.10;0.30;;;;;;;12.04;78.18;99687.13;179946;1257;59821;-65
2023/12/29 12:45:06;;;;;;;1.70;0.70;;;;;;;11.96;78.66;99689.54;180073;1257;46143;-65
2023/12/29 12:49:10;;;;;;;3.90;1.00;;;;;;;11.81;77.98;99687.34;180039;1257;45961;-64
2023/12/29 12:53:20;;;;;;;3.50;0.90;;;;;;;11.74;78.60;99684.48;180148;1257;43649;-64
2023/12/29 12:57:25;;;;;;;2.00;0.60;;;;;;;11.66;78.87;99687.69;180063;1257;43904;-65
2023/12/29 13:01:37;;;;;;;1.90;1.20;;;;;;;11.56;79.16;99681.27;180266;1257;58217;-64
2023/12/29 13:05:44;;;;;;;1.60;1.00;;;;;;;11.45;79.26;99682.94;180084;1259;45893;-65
2023/12/29 13:09:51;;;;;;;1.80;1.50;;;;;;;11.46;79.69;99682.02;180077;1257;45964;-64
2023/12/29 13:13:56;;;;;;;5.60;3.00;;;;;;;11.40;80.13;99680.45;179830;1259;44665;-65
2023/12/29 13:18:02;;;;;;;2.70;1.60;;;;;;;11.34;80.50;99671.38;179949;1257;44716;-64
2023/12/29 13:22:11;;;;;;;1.60;1.30;;;;;;;11.35;80.75;99665.83;180066;1257;58672;-64
2023/12/29 13:26:18;;;;;;;3.20;1.20;;;;;;;11.31;81.08;99663.34;180152;1259;45299;-65
2023/12/29 13:30:47;;;;;;;2.00;1.30;;;;;;;11.32;81.22;99665.58;180231;1257;43742;-65
2023/12/29 13:35:03;;;;;;;1.80;1.00;;;;;;;11.24;82.08;99659.70;179964;1257;45897;-64
2023/12/29 13:39:17;;;;;;;1.00;0.70;;;;;;;11.17;82.48;99655.04;179907;1257;45962;-64
2023/12/29 13:43:22;;;;;;;3.10;1.20;;;;;;;11.15;82.13;99654.54;179944;1257;58706;-64
2023/12/29 13:47:26;;;;;;;2.00;1.90;;;;;;;11.18;82.93;99652.34;179950;1258;45938;-64
2023/12/29 13:51:30;;;;;;;3.40;2.20;;;;;;;11.14;83.77;99666.54;180047;1257;46224;-64
2023/12/29 13:55:33;;;;;;;1.70;1.60;;;;;;;11.08;83.09;99656.64;180150;1257;46153;-65
2023/12/29 13:59:37;;;;;;;5.40;1.90;;;;;;;11.02;83.08;99668.16;180002;1257;44919;-65
2023/12/29 14:04:03;;;;;;;2.20;1.70;;;;;;;10.95;82.96;99667.63;179958;1257;57660;-65
2023/12/29 14:08:34;;;;;;;3.90;2.30;;;;;;;10.92;83.19;99668.02;179985;1257;44265;-64
2023/12/29 14:12:37;;;;;;;2.50;1.60;;;;;;;10.85;83.41;99669.35;179991;1257;43919;-65
2023/12/29 14:16:43;;;;;;;6.10;2.30;;;;;;;10.77;83.38;99655.95;179850;1257;44863;-65
2023/12/29 14:20:47;;;;;;;3.90;2.20;;;;;;;10.70;83.79;99646.30;180115;1259;46033;-65
2023/12/29 14:25:07;;;;;;;3.00;1.50;;;;;;;10.61;84.49;99639.65;180009;1257;58618;-65
2023/12/29 14:29:13;;;;;;;2.20;2.00;;;;;;;10.50;85.19;99642.44;180145;1257;45919;-65
2023/12/29 14:33:17;;;;;;;2.80;2.50;;;;;;;10.39;85.87;99641.64;179997;1261;46076;-65
2023/12/29 14:37:20;;;;;;;2.30;1.80;;;;;;;10.28;86.12;99648.29;180114;1257;46076;-65
2023/12/29 14:41:31;;;;;;;2.60;2.40;;;;;;;10.18;86.65;99649.03;180122;1257;45884;-65
2023/12/29 14:45:35;;;;;;;3.30;1.80;;;;;;;10.07;87.37;99654.80;180105;1257;58432;-65
2023/12/29 14:49:38;;;;;;;2.50;1.50;;;;;;;9.96;87.72;99653.06;180052;1257;44925;-65
2023/12/29 14:53:48;;;;;;;2.80;2.50;;;;;;;9.86;87.95;99659.67;179978;1257;46065;-65
2023/12/29 14:57:51;;;;;;;3.60;3.00;;;;;;;9.76;88.49;99665.83;180003;1261;43754;-65
2023/12/29 15:01:55;;;;;;;4.10;2.90;;;;;;;9.68;89.06;99663.98;179918;1259;43897;-65
2023/12/29 15:05:59;;;;;;;6.80;3.90;;;;;;;9.64;89.15;99669.02;179844;1259;58859;-65
2023/12/29 15:15:07;;;;;;;5.90;2.50;;;;;;;9.49;89.53;99658.20;179848;1258;43917;-65
2023/12/29 15:19:27;;;;;;;4.70;2.40;;;;;;;9.42;89.32;99652.80;179992;1258;45435;-66
2023/12/29 15:23:32;;;;;;;3.10;2.10;;;;;;;9.37;89.32;99655.04;179641;1259;218034;-65
2023/12/29 15:27:35;;;;;;;3.00;2.70;;;;;;;9.37;89.74;99651.35;179964;1259;58815;-65
2023/12/29 15:31:45;;;;;;;5.70;3.60;;;;;;;9.35;90.17;99649.79;179916;1258;45560;-65
2023/12/29 15:35:49;;;;;;;5.70;4.00;;;;;;;9.35;90.52;99644.65;179841;1258;46011;-65
2023/12/29 15:39:55;;;;;;;3.80;3.30;;;;;;;9.38;90.83;99633.70;180077;1257;45914;-65
2023/12/29 15:44:03;;;;;;;2.40;1.90;;;;;;;9.41;91.12;99633.13;180127;1259;43705;-66
2023/12/29 15:48:08;;;;;;;4.20;3.00;;;;;;;9.44;91.02;99622.94;179782;1259;58698;-64
2023/12/29 15:52:13;;;;;;;6.80;3.00;;;;;;;9.47;90.82;99615.94;179907;1257;43911;-65
2023/12/29 15:56:18;;;;;;;5.80;2.40;;;;;;;9.45;91.05;99617.90;180152;1257;43843;-64
2023/12/29 16:00:23;;;;;;;4.50;2.90;;;;;;;9.45;90.75;99612.95;180142;1261;45130;-64
2023/12/29 16:04:27;;;;;;;4.90;3.50;;;;;;;9.46;90.59;99616.24;179941;1257;44611;-65
2023/12/29 16:08:32;;;;;;;4.00;2.90;;;;;;;9.46;90.34;99612.55;180103;1257;58251;-65
2023/12/29 16:12:43;;;;;;;3.90;3.30;;;;;;;9.40;90.48;99600.23;180154;1257;44097;-64
2023/12/29 16:16:47;;;;;;;8.60;4.30;;;;;;;9.35;90.98;99602.66;179916;1257;45032;-64
2023/12/29 16:20:50;;;;;;;5.10;3.50;;;;;;;9.33;91.38;99610.30;180046;1257;44915;-64
2023/12/29 16:24:54;;;;;;;7.00;3.20;;;;;;;9.31;92.55;99613.45;180128;1257;44632;-64
2023/12/29 16:28:58;;;;;;;6.10;3.00;;;;;;;9.36;93.04;99608.75;180062;1257;58702;-65
2023/12/29 16:33:05;;;;;;;3.70;2.40;;;;;;;9.50;92.78;99605.19;180059;1257;44550;-65
2023/12/29 16:37:39;;;;;;;3.00;2.30;;;;;;;9.61;92.35;99600.21;179977;1259;43691;-64
2023/12/29 16:41:43;;;;;;;3.00;2.10;;;;;;;9.71;91.58;99600.73;180050;1257;43808;-65
2023/12/29 16:45:47;;;;;;;2.70;2.20;;;;;;;9.86;90.76;99595.73;180128;1257;45954;-63
2023/12/29 16:49:51;;;;;;;3.00;2.00;;;;;;;9.97;90.08;99593.49;180032;1257;57971;-64
2023/12/29 16:54:04;;;;;;;4.70;2.50;;;;;;;10.01;90.01;99596.51;180294;1257;43727;-63
2023/12/29 16:58:09;;;;;;;2.70;1.90;;;;;;;10.02;89.73;99592.30;180290;1257;45107;-63
2023/12/29 17:02:12;;;;;;;2.60;1.70;;;;;;;10.03;89.69;99598.14;180329;1257;43941;-64
2023/12/29 17:06:16;;;;;;;2.90;2.20;;;;;;;10.06;89.53;99598.39;180284;1257;44993;-64
2023/12/29 17:10:37;;;;;;;3.00;2.10;;;;;;;10.05;89.64;99602.30;179966;1257;58521;-63
2023/12/29 17:14:44;;;;;;;3.80;2.10;;;;;;;10.09;89.90;99602.65;180084;1257;46238;-64
2023/12/29 17:18:47;;;;;;;1.80;1.50;;;;;;;10.14;89.59;99600.46;180194;1257;46040;-64
2023/12/29 17:22:51;;;;;;;5.40;2.20;;;;;;;10.14;89.38;99598.48;180110;1257;43714;-64
2023/12/29 17:26:56;;;;;;;4.40;2.80;;;;;;;10.10;89.13;99592.89;180035;1257;43562;-64
2023/12/29 17:31:03;;;;;;;5.50;2.60;;;;;;;10.06;89.30;99593.73;180093;1257;58655;-64
2023/12/29 17:35:08;;;;;;;3.50;2.40;;;;;;;10.05;89.18;99593.51;180224;1257;45878;-63
2023/12/29 17:39:12;;;;;;;4.20;2.10;;;;;;;10.03;89.19;99595.45;180051;1257;45962;-64
2023/12/29 17:43:15;;;;;;;2.30;1.70;;;;;;;10.03;89.10;99590.84;180250;1257;43988;-64
2023/12/29 17:47:20;;;;;;;4.50;1.80;;;;;;;10.05;89.17;99596.98;180057;1257;44188;-64
2023/12/29 17:51:33;;;;;;;2.80;2.00;;;;;;;10.12;89.67;99601.72;180096;1257;57554;-64
2023/12/29 17:55:37;;;;;;;3.70;2.30;;;;;;;10.16;89.16;99595.98;180138;1260;45957;-64
2023/12/29 17:59:41;;;;;;;2.50;1.60;;;;;;;10.25;88.71;99587.23;180332;1257;45970;-65
2023/12/29 18:03:49;;;;;;;3.10;1.70;;;;;;;10.30;88.41;99588.73;180217;1257;44199;-64
2023/12/29 18:07:53;;;;;;;3.40;2.40;;;;;;;10.34;88.54;99586.98;180083;1257;46040;-64
2023/12/29 18:11:58;;;;;;;3.80;2.60;;;;;;;10.35;88.60;99583.51;179958;1257;58397;-64
2023/12/29 18:16:09;;;;;;;4.60;3.30;;;;;;;10.37;88.70;99581.71;179928;1257;45013;-64
2023/12/29 18:20:16;;;;;;;6.80;2.90;;;;;;;10.39;88.79;99582.09;180065;1257;45979;-63
2023/12/29 18:24:20;;;;;;;3.80;2.50;;;;;;;10.37;88.60;99582.95;180086;1257;44861;-64
2023/12/29 18:28:23;;;;;;;2.60;1.70;;;;;;;10.43;88.26;99584.38;180138;1257;43795;-64
2023/12/29 18:32:27;;;;;;;5.20;2.70;;;;;;;10.43;87.89;99582.40;180158;1257;57017;-65
2023/12/29 18:36:30;;;;;;;2.90;2.60;;;;;;;10.40;87.84;99581.44;180042;1257;45919;-63
2023/12/29 18:40:34;;;;;;;4.40;2.40;;;;;;;10.38;88.00;99577.01;180049;1257;46163;-64
2023/12/29 18:44:38;;;;;;;2.60;1.70;;;;;;;10.37;88.42;99577.48;180040;1257;46765;-64
2023/12/29 18:48:42;;;;;;;3.40;1.80;;;;;;;10.36;88.33;99581.63;180008;1259;43776;-65
2023/12/29 18:52:45;;;;;;;4.40;2.30;;;;;;;10.35;88.44;99581.87;179928;1259;59941;-64
2023/12/29 18:56:49;;;;;;;2.60;1.80;;;;;;;10.33;88.93;99591.61;180061;1257;43688;-64
2023/12/29 19:00:55;;;;;;;3.80;1.80;;;;;;;10.31;89.11;99587.03;180127;1257;45346;-64
2023/12/29 19:04:59;;;;;;;5.90;2.90;;;;;;;10.33;88.99;99584.42;180087;1257;46083;-65
2023/12/29 19:09:21;;;;;;;2.20;1.80;;;;;;;10.34;89.17;99584.31;180074;1257;45897;-64
2023/12/29 19:13:25;;;;;;;2.40;1.40;;;;;;;10.35;89.00;99588.25;180160;1257;58972;-64
2023/12/29 19:18:20;;;;;;;2.60;2.20;;;;;;;10.38;88.71;99595.65;180241;1257;45926;-63
2023/12/29 19:22:24;;;;;;;2.30;2.10;;;;;;;10.42;88.90;99601.85;180084;1257;45885;-63
2023/12/29 19:26:30;;;;;;;3.80;2.10;;;;;;;10.42;89.02;99602.16;180220;1257;45976;-64